sensor_id;sensor_type;location;lat;lon;timestamp;temperature;humidity
5494;DHT22;2769;49.864;8.656;2022-12-17T00:00:42;-1.60;99.90
5494;DHT22;2769;49.864;8.656;2022-12-17T00:03:29;-1.80;99.90
5494;DHT22;2769;49.864;8.656;2022-12-17T00:06:16;-1.80;99.90
5494;DHT22;2769;49.864;8.656;2022-12-17T00:09:02;-1.70;99.90
5494;DHT22;2769;49.864;8.656;2022-12-17T00:11:48;-1.70;99.90
5494;DHT22;2769;49.864;8.656;2022-12-17T00:14:34;-1.50;99.90
5494;DHT22;2769;49.864;8.656;2022-12-17T00:17:19;-1.60;99.90
5494;DHT22;2769;49.864;8.656;2022-12-17T00:20:06;-1.60;99.90
5494;DHT22;2769;49.864;8.656;2022-12-17T00:22:57;-1.70;99.90
5494;DHT22;2769;49.864;8.656;2022-12-17T00:25:43;-1.70;99.90
5494;DHT22;2769;49.864;8.656;2022-12-17T00:28:28;-1.70;99.90
5494;DHT22;2769;49.864;8.656;2022-12-17T00:31:14;-1.60;99.90
5494;DHT22;2769;49.864;8.656;2022-12-17T00:33:59;-1.60;99.90
5494;DHT22;2769;49.864;8.656;2022-12-17T00:36:46;-1.70;99.90
5494;DHT22;2769;49.864;8.656;2022-12-17T00:39:34;-1.60;99.90
5494;DHT22;2769;49.864;8.656;2022-12-17T00:42:27;-1.60;99.90
5494;DHT22;2769;49.864;8.656;2022-12-17T00:45:13;-2.00;99.90
5494;DHT22;2769;49.864;8.656;2022-12-17T00:47:58;-2.00;99.90
5494;DHT22;2769;49.864;8.656;2022-12-17T00:50:44;-1.90;99.90
5494;DHT22;2769;49.864;8.656;2022-12-17T00:53:30;-1.80;99.90
5494;DHT22;2769;49.864;8.656;2022-12-17T00:56:15;-1.80;99.90
5494;DHT22;2769;49.864;8.656;2022-12-17T00:59:04;-1.70;99.90
5494;DHT22;2769;49.864;8.656;2022-12-17T01:01:50;-2.10;99.90
5494;DHT22;2769;49.864;8.656;2022-12-17T01:04:35;-2.00;99.90
5494;DHT22;2769;49.864;8.656;2022-12-17T01:07:23;-1.90;99.90
5494;DHT22;2769;49.864;8.656;2022-12-17T01:10:10;-1.90;99.90
5494;DHT22;2769;49.864;8.656;2022-12-17T01:12:56;-1.70;99.90
5494;DHT22;2769;49.864;8.656;2022-12-17T01:15:42;-1.90;99.90
5494;DHT22;2769;49.864;8.656;2022-12-17T01:18:27;-1.90;99.90
5494;DHT22;2769;49.864;8.656;2022-12-17T01:21:13;-2.00;99.90
5494;DHT22;2769;49.864;8.656;2022-12-17T01:23:58;-1.90;99.90
5494;DHT22;2769;49.864;8.656;2022-12-17T01:26:54;-2.00;99.90
5494;DHT22;2769;49.864;8.656;2022-12-17T01:29:39;-1.90;99.90
5494;DHT22;2769;49.864;8.656;2022-12-17T01:32:25;-2.00;99.90
5494;DHT22;2769;49.864;8.656;2022-12-17T01:35:13;-2.20;99.90
5494;DHT22;2769;49.864;8.656;2022-12-17T01:37:59;-2.00;99.90
5494;DHT22;2769;49.864;8.656;2022-12-17T01:40:56;-2.00;99.90
5494;DHT22;2769;49.864;8.656;2022-12-17T01:43:43;-2.20;99.90
5494;DHT22;2769;49.864;8.656;2022-12-17T01:46:49;-2.10;99.90
5494;DHT22;2769;49.864;8.656;2022-12-17T01:49:35;-1.80;99.90
5494;DHT22;2769;49.864;8.656;2022-12-17T01:52:21;-2.00;99.90
5494;DHT22;2769;49.864;8.656;2022-12-17T01:55:18;-2.00;99.90
5494;DHT22;2769;49.864;8.656;2022-12-17T01:58:04;-1.70;99.90
5494;DHT22;2769;49.864;8.656;2022-12-17T02:00:51;-1.80;99.90
5494;DHT22;2769;49.864;8.656;2022-12-17T02:03:39;-1.90;99.90
5494;DHT22;2769;49.864;8.656;2022-12-17T02:06:27;-1.80;99.90
5494;DHT22;2769;49.864;8.656;2022-12-17T02:09:34;-1.90;99.90
5494;DHT22;2769;49.864;8.656;2022-12-17T02:12:26;-2.00;99.90
5494;DHT22;2769;49.864;8.656;2022-12-17T02:15:19;-2.50;99.90
5494;DHT22;2769;49.864;8.656;2022-12-17T02:18:16;-2.80;99.90
5494;DHT22;2769;49.864;8.656;2022-12-17T02:21:03;-2.80;99.90
5494;DHT22;2769;49.864;8.656;2022-12-17T02:23:57;-2.90;99.90
5494;DHT22;2769;49.864;8.656;2022-12-17T02:26:50;-2.60;99.90
5494;DHT22;2769;49.864;8.656;2022-12-17T02:29:39;-2.80;99.90
5494;DHT22;2769;49.864;8.656;2022-12-17T02:32:27;-3.00;99.90
5494;DHT22;2769;49.864;8.656;2022-12-17T02:35:16;-3.10;99.90
5494;DHT22;2769;49.864;8.656;2022-12-17T02:38:16;-2.80;99.90
5494;DHT22;2769;49.864;8.656;2022-12-17T02:41:03;-2.90;99.90
5494;DHT22;2769;49.864;8.656;2022-12-17T02:43:51;-3.10;99.90
5494;DHT22;2769;49.864;8.656;2022-12-17T02:46:38;-3.00;99.90
5494;DHT22;2769;49.864;8.656;2022-12-17T02:49:25;-2.90;99.90
5494;DHT22;2769;49.864;8.656;2022-12-17T02:52:12;-2.80;99.90
5494;DHT22;2769;49.864;8.656;2022-12-17T02:55:01;-2.90;99.90
5494;DHT22;2769;49.864;8.656;2022-12-17T02:57:49;-2.90;99.90
5494;DHT22;2769;49.864;8.656;2022-12-17T03:00:36;-2.70;99.90
5494;DHT22;2769;49.864;8.656;2022-12-17T03:03:26;-2.60;99.90
5494;DHT22;2769;49.864;8.656;2022-12-17T03:06:16;-2.60;99.90
5494;DHT22;2769;49.864;8.656;2022-12-17T03:09:02;-2.40;99.90
5494;DHT22;2769;49.864;8.656;2022-12-17T03:11:50;-2.50;99.90
5494;DHT22;2769;49.864;8.656;2022-12-17T03:14:36;-2.70;99.90
5494;DHT22;2769;49.864;8.656;2022-12-17T03:17:24;-2.50;99.90
5494;DHT22;2769;49.864;8.656;2022-12-17T03:20:10;-2.50;99.90
5494;DHT22;2769;49.864;8.656;2022-12-17T03:23:01;-2.50;99.90
5494;DHT22;2769;49.864;8.656;2022-12-17T03:25:47;-2.50;99.90
5494;DHT22;2769;49.864;8.656;2022-12-17T03:28:47;-2.30;99.90
5494;DHT22;2769;49.864;8.656;2022-12-17T03:31:33;-2.60;99.90
5494;DHT22;2769;49.864;8.656;2022-12-17T03:34:20;-2.60;99.90
5494;DHT22;2769;49.864;8.656;2022-12-17T03:37:06;-2.70;99.90
5494;DHT22;2769;49.864;8.656;2022-12-17T03:39:52;-2.60;99.90
5494;DHT22;2769;49.864;8.656;2022-12-17T03:42:37;-2.60;99.90
5494;DHT22;2769;49.864;8.656;2022-12-17T03:45:26;-2.60;99.90
5494;DHT22;2769;49.864;8.656;2022-12-17T03:48:13;-2.60;99.90
5494;DHT22;2769;49.864;8.656;2022-12-17T03:51:01;-2.20;99.90
5494;DHT22;2769;49.864;8.656;2022-12-17T03:53:46;-2.40;99.90
5494;DHT22;2769;49.864;8.656;2022-12-17T03:56:32;-2.60;99.90
5494;DHT22;2769;49.864;8.656;2022-12-17T03:59:18;-2.70;99.90
5494;DHT22;2769;49.864;8.656;2022-12-17T04:02:03;-2.50;99.90
5494;DHT22;2769;49.864;8.656;2022-12-17T04:04:52;-2.60;99.90
5494;DHT22;2769;49.864;8.656;2022-12-17T04:07:47;-2.60;99.90
5494;DHT22;2769;49.864;8.656;2022-12-17T04:10:33;-2.70;99.90
5494;DHT22;2769;49.864;8.656;2022-12-17T04:13:20;-2.80;99.90
5494;DHT22;2769;49.864;8.656;2022-12-17T04:16:07;-2.70;99.90
5494;DHT22;2769;49.864;8.656;2022-12-17T04:18:54;-2.80;99.90
5494;DHT22;2769;49.864;8.656;2022-12-17T04:21:40;-2.70;99.90
5494;DHT22;2769;49.864;8.656;2022-12-17T04:24:27;-2.60;99.90
5494;DHT22;2769;49.864;8.656;2022-12-17T04:27:12;-3.00;99.90
5494;DHT22;2769;49.864;8.656;2022-12-17T04:29:58;-2.80;99.90
5494;DHT22;2769;49.864;8.656;2022-12-17T04:32:43;-2.90;99.90
5494;DHT22;2769;49.864;8.656;2022-12-17T04:35:29;-3.10;99.90
5494;DHT22;2769;49.864;8.656;2022-12-17T04:38:15;-3.00;99.90
5494;DHT22;2769;49.864;8.656;2022-12-17T04:41:01;-3.10;99.90
5494;DHT22;2769;49.864;8.656;2022-12-17T04:43:47;-3.00;99.90
5494;DHT22;2769;49.864;8.656;2022-12-17T04:46:33;-2.80;99.90
5494;DHT22;2769;49.864;8.656;2022-12-17T04:49:18;-2.90;99.90
5494;DHT22;2769;49.864;8.656;2022-12-17T04:52:04;-3.10;99.90
5494;DHT22;2769;49.864;8.656;2022-12-17T04:54:49;-3.20;99.90
5494;DHT22;2769;49.864;8.656;2022-12-17T04:57:36;-3.30;99.90
5494;DHT22;2769;49.864;8.656;2022-12-17T05:00:22;-3.20;99.90
5494;DHT22;2769;49.864;8.656;2022-12-17T05:03:11;-3.10;99.90
5494;DHT22;2769;49.864;8.656;2022-12-17T05:05:57;-3.00;99.90
5494;DHT22;2769;49.864;8.656;2022-12-17T05:08:42;-3.10;99.90
5494;DHT22;2769;49.864;8.656;2022-12-17T05:11:31;-3.00;99.90
5494;DHT22;2769;49.864;8.656;2022-12-17T05:14:18;-3.00;99.90
5494;DHT22;2769;49.864;8.656;2022-12-17T05:17:03;-2.90;99.90
5494;DHT22;2769;49.864;8.656;2022-12-17T05:19:50;-3.00;99.90
5494;DHT22;2769;49.864;8.656;2022-12-17T05:22:35;-2.80;99.90
5494;DHT22;2769;49.864;8.656;2022-12-17T05:25:21;-2.90;99.90
5494;DHT22;2769;49.864;8.656;2022-12-17T05:28:06;-2.90;99.90
5494;DHT22;2769;49.864;8.656;2022-12-17T05:30:54;-3.00;99.90
5494;DHT22;2769;49.864;8.656;2022-12-17T05:33:40;-3.20;99.90
5494;DHT22;2769;49.864;8.656;2022-12-17T05:36:26;-3.30;99.90
5494;DHT22;2769;49.864;8.656;2022-12-17T05:39:12;-3.40;99.90
5494;DHT22;2769;49.864;8.656;2022-12-17T05:41:58;-3.20;99.90
5494;DHT22;2769;49.864;8.656;2022-12-17T05:44:43;-3.30;99.90
5494;DHT22;2769;49.864;8.656;2022-12-17T05:47:30;-3.40;99.90
5494;DHT22;2769;49.864;8.656;2022-12-17T05:50:16;-3.30;99.90
5494;DHT22;2769;49.864;8.656;2022-12-17T05:53:02;-3.10;99.90
5494;DHT22;2769;49.864;8.656;2022-12-17T05:55:49;-3.00;99.90
5494;DHT22;2769;49.864;8.656;2022-12-17T05:58:34;-3.30;99.90
5494;DHT22;2769;49.864;8.656;2022-12-17T06:01:20;-3.10;99.90
5494;DHT22;2769;49.864;8.656;2022-12-17T06:04:08;-3.10;99.90
5494;DHT22;2769;49.864;8.656;2022-12-17T06:06:54;-3.40;99.90
5494;DHT22;2769;49.864;8.656;2022-12-17T06:09:40;-3.30;99.90
5494;DHT22;2769;49.864;8.656;2022-12-17T06:12:25;-3.20;99.90
5494;DHT22;2769;49.864;8.656;2022-12-17T06:15:11;-3.10;99.90
5494;DHT22;2769;49.864;8.656;2022-12-17T06:17:57;-3.20;99.90
5494;DHT22;2769;49.864;8.656;2022-12-17T06:20:45;-3.40;99.90
5494;DHT22;2769;49.864;8.656;2022-12-17T06:23:30;-3.40;99.90
5494;DHT22;2769;49.864;8.656;2022-12-17T06:26:16;-3.50;99.90
5494;DHT22;2769;49.864;8.656;2022-12-17T06:29:01;-3.60;99.90
5494;DHT22;2769;49.864;8.656;2022-12-17T06:31:47;-3.40;99.90
5494;DHT22;2769;49.864;8.656;2022-12-17T06:34:32;-3.50;99.90
5494;DHT22;2769;49.864;8.656;2022-12-17T06:37:19;-3.60;99.90
5494;DHT22;2769;49.864;8.656;2022-12-17T06:40:06;-3.50;99.90
5494;DHT22;2769;49.864;8.656;2022-12-17T06:42:52;-3.40;99.90
5494;DHT22;2769;49.864;8.656;2022-12-17T06:45:38;-3.50;99.90
5494;DHT22;2769;49.864;8.656;2022-12-17T06:48:24;-3.40;99.90
5494;DHT22;2769;49.864;8.656;2022-12-17T06:51:09;-3.50;99.90
5494;DHT22;2769;49.864;8.656;2022-12-17T06:53:56;-3.50;99.90
5494;DHT22;2769;49.864;8.656;2022-12-17T06:56:42;-3.60;99.90
5494;DHT22;2769;49.864;8.656;2022-12-17T06:59:27;-3.50;99.90
5494;DHT22;2769;49.864;8.656;2022-12-17T07:02:13;-3.50;99.90
5494;DHT22;2769;49.864;8.656;2022-12-17T07:04:59;-3.70;99.90
5494;DHT22;2769;49.864;8.656;2022-12-17T07:07:45;-3.90;99.90
5494;DHT22;2769;49.864;8.656;2022-12-17T07:10:37;-3.70;99.90
5494;DHT22;2769;49.864;8.656;2022-12-17T07:13:23;-4.00;99.90
5494;DHT22;2769;49.864;8.656;2022-12-17T07:16:08;-3.70;99.90
5494;DHT22;2769;49.864;8.656;2022-12-17T07:18:54;-3.60;99.90
5494;DHT22;2769;49.864;8.656;2022-12-17T07:21:40;-3.90;99.90
5494;DHT22;2769;49.864;8.656;2022-12-17T07:24:25;-3.60;99.90
5494;DHT22;2769;49.864;8.656;2022-12-17T07:27:12;-3.60;99.90
5494;DHT22;2769;49.864;8.656;2022-12-17T07:29:58;-3.80;99.90
5494;DHT22;2769;49.864;8.656;2022-12-17T07:32:43;-3.90;99.90
5494;DHT22;2769;49.864;8.656;2022-12-17T07:35:31;-3.90;99.90
5494;DHT22;2769;49.864;8.656;2022-12-17T07:38:17;-3.80;99.90
5494;DHT22;2769;49.864;8.656;2022-12-17T07:41:02;-4.00;99.90
5494;DHT22;2769;49.864;8.656;2022-12-17T07:43:49;-3.80;99.90
5494;DHT22;2769;49.864;8.656;2022-12-17T07:46:36;-3.90;99.90
5494;DHT22;2769;49.864;8.656;2022-12-17T07:49:21;-4.00;99.90
5494;DHT22;2769;49.864;8.656;2022-12-17T07:52:09;-4.20;99.90
5494;DHT22;2769;49.864;8.656;2022-12-17T07:54:55;-4.30;99.90
5494;DHT22;2769;49.864;8.656;2022-12-17T07:57:44;-4.20;99.90
5494;DHT22;2769;49.864;8.656;2022-12-17T08:00:31;-4.30;99.90
5494;DHT22;2769;49.864;8.656;2022-12-17T08:03:17;-4.40;99.90
5494;DHT22;2769;49.864;8.656;2022-12-17T08:06:04;-4.20;99.90
5494;DHT22;2769;49.864;8.656;2022-12-17T08:08:50;-4.20;99.90
5494;DHT22;2769;49.864;8.656;2022-12-17T08:11:35;-4.20;99.90
5494;DHT22;2769;49.864;8.656;2022-12-17T08:14:20;-4.30;99.90
5494;DHT22;2769;49.864;8.656;2022-12-17T08:17:07;-4.10;99.90
5494;DHT22;2769;49.864;8.656;2022-12-17T08:19:54;-4.30;99.90
5494;DHT22;2769;49.864;8.656;2022-12-17T08:22:42;-4.00;99.90
5494;DHT22;2769;49.864;8.656;2022-12-17T08:25:27;-4.20;99.90
5494;DHT22;2769;49.864;8.656;2022-12-17T08:28:13;-4.00;99.90
5494;DHT22;2769;49.864;8.656;2022-12-17T08:31:19;-4.00;99.90
5494;DHT22;2769;49.864;8.656;2022-12-17T08:34:06;-4.00;99.90
5494;DHT22;2769;49.864;8.656;2022-12-17T08:36:52;-4.20;99.90
5494;DHT22;2769;49.864;8.656;2022-12-17T08:39:37;-3.90;99.90
5494;DHT22;2769;49.864;8.656;2022-12-17T08:42:23;-4.10;99.90
5494;DHT22;2769;49.864;8.656;2022-12-17T08:45:09;-3.90;99.90
5494;DHT22;2769;49.864;8.656;2022-12-17T08:47:51;-4.10;99.90
5494;DHT22;2769;49.864;8.656;2022-12-17T08:50:38;-3.90;99.90
5494;DHT22;2769;49.864;8.656;2022-12-17T08:53:24;-3.80;99.90
5494;DHT22;2769;49.864;8.656;2022-12-17T08:56:24;-3.80;99.90
5494;DHT22;2769;49.864;8.656;2022-12-17T08:59:10;-3.80;99.90
5494;DHT22;2769;49.864;8.656;2022-12-17T09:01:56;-3.70;99.90
5494;DHT22;2769;49.864;8.656;2022-12-17T09:04:42;-3.80;99.90
5494;DHT22;2769;49.864;8.656;2022-12-17T09:07:29;-3.50;99.90
5494;DHT22;2769;49.864;8.656;2022-12-17T09:10:15;-3.40;99.90
5494;DHT22;2769;49.864;8.656;2022-12-17T09:13:01;-3.40;99.90
5494;DHT22;2769;49.864;8.656;2022-12-17T09:15:51;-3.10;99.90
5494;DHT22;2769;49.864;8.656;2022-12-17T09:18:45;-3.10;99.90
5494;DHT22;2769;49.864;8.656;2022-12-17T09:21:30;-3.20;99.90
5494;DHT22;2769;49.864;8.656;2022-12-17T09:24:26;-3.00;99.90
5494;DHT22;2769;49.864;8.656;2022-12-17T09:27:17;-3.00;99.90
5494;DHT22;2769;49.864;8.656;2022-12-17T09:30:03;-2.80;99.90
5494;DHT22;2769;49.864;8.656;2022-12-17T09:32:49;-2.90;99.90
5494;DHT22;2769;49.864;8.656;2022-12-17T09:35:36;-2.80;99.90
5494;DHT22;2769;49.864;8.656;2022-12-17T09:38:21;-2.40;99.90
5494;DHT22;2769;49.864;8.656;2022-12-17T09:41:15;-2.10;99.90
5494;DHT22;2769;49.864;8.656;2022-12-17T09:44:06;-1.90;99.90
5494;DHT22;2769;49.864;8.656;2022-12-17T09:46:59;-1.70;99.90
5494;DHT22;2769;49.864;8.656;2022-12-17T09:49:47;-1.40;99.90
5494;DHT22;2769;49.864;8.656;2022-12-17T09:52:35;-1.10;99.90
5494;DHT22;2769;49.864;8.656;2022-12-17T09:55:26;-0.40;99.90
5494;DHT22;2769;49.864;8.656;2022-12-17T09:58:19;0.20;99.90
5494;DHT22;2769;49.864;8.656;2022-12-17T10:01:05;1.10;99.90
5494;DHT22;2769;49.864;8.656;2022-12-17T10:03:51;1.70;99.40
5494;DHT22;2769;49.864;8.656;2022-12-17T10:06:36;2.10;99.60
5494;DHT22;2769;49.864;8.656;2022-12-17T10:09:24;2.70;97.10
5494;DHT22;2769;49.864;8.656;2022-12-17T10:12:13;2.80;96.60
5494;DHT22;2769;49.864;8.656;2022-12-17T10:15:01;3.10;96.10
5494;DHT22;2769;49.864;8.656;2022-12-17T10:17:48;3.00;95.70
5494;DHT22;2769;49.864;8.656;2022-12-17T10:20:37;2.80;95.70
5494;DHT22;2769;49.864;8.656;2022-12-17T10:23:25;2.90;95.50
5494;DHT22;2769;49.864;8.656;2022-12-17T10:26:22;3.40;96.20
5494;DHT22;2769;49.864;8.656;2022-12-17T10:29:11;3.50;96.10
5494;DHT22;2769;49.864;8.656;2022-12-17T10:32:08;4.30;93.90
5494;DHT22;2769;49.864;8.656;2022-12-17T10:34:57;4.60;93.40
5494;DHT22;2769;49.864;8.656;2022-12-17T10:37:55;4.80;92.30
5494;DHT22;2769;49.864;8.656;2022-12-17T10:40:40;4.80;91.70
5494;DHT22;2769;49.864;8.656;2022-12-17T10:43:29;4.90;91.90
5494;DHT22;2769;49.864;8.656;2022-12-17T10:46:26;4.90;91.90
5494;DHT22;2769;49.864;8.656;2022-12-17T10:49:15;5.30;92.00
5494;DHT22;2769;49.864;8.656;2022-12-17T10:52:04;5.90;91.10
5494;DHT22;2769;49.864;8.656;2022-12-17T10:54:56;6.30;90.40
5494;DHT22;2769;49.864;8.656;2022-12-17T10:57:43;6.80;88.20
5494;DHT22;2769;49.864;8.656;2022-12-17T11:00:32;7.00;85.50
5494;DHT22;2769;49.864;8.656;2022-12-17T11:03:38;6.90;85.40
5494;DHT22;2769;49.864;8.656;2022-12-17T11:06:34;6.90;85.10
5494;DHT22;2769;49.864;8.656;2022-12-17T11:09:30;6.90;84.80
5494;DHT22;2769;49.864;8.656;2022-12-17T11:12:19;6.80;84.80
5494;DHT22;2769;49.864;8.656;2022-12-17T11:15:15;6.00;85.70
5494;DHT22;2769;49.864;8.656;2022-12-17T11:18:02;6.20;86.00
5494;DHT22;2769;49.864;8.656;2022-12-17T11:20:55;6.30;85.70
5494;DHT22;2769;49.864;8.656;2022-12-17T11:23:45;5.00;87.40
5494;DHT22;2769;49.864;8.656;2022-12-17T11:26:36;5.60;89.20
5494;DHT22;2769;49.864;8.656;2022-12-17T11:29:22;5.60;88.40
5494;DHT22;2769;49.864;8.656;2022-12-17T11:35:46;5.20;89.40
5494;DHT22;2769;49.864;8.656;2022-12-17T11:38:37;5.30;90.10
5494;DHT22;2769;49.864;8.656;2022-12-17T11:41:46;5.20;89.80
5494;DHT22;2769;49.864;8.656;2022-12-17T11:44:49;5.10;89.60
5494;DHT22;2769;49.864;8.656;2022-12-17T11:47:42;4.70;90.50
5494;DHT22;2769;49.864;8.656;2022-12-17T11:50:36;4.70;90.70
5494;DHT22;2769;49.864;8.656;2022-12-17T11:53:38;3.90;92.00
5494;DHT22;2769;49.864;8.656;2022-12-17T11:56:28;3.70;92.00
5494;DHT22;2769;49.864;8.656;2022-12-17T11:59:24;3.60;92.90
5494;DHT22;2769;49.864;8.656;2022-12-17T12:02:35;3.30;93.80
5494;DHT22;2769;49.864;8.656;2022-12-17T12:05:32;2.80;94.60
5494;DHT22;2769;49.864;8.656;2022-12-17T12:08:25;2.50;96.00
5494;DHT22;2769;49.864;8.656;2022-12-17T12:11:21;2.40;97.30
5494;DHT22;2769;49.864;8.656;2022-12-17T12:14:18;1.90;98.00
5494;DHT22;2769;49.864;8.656;2022-12-17T12:17:22;1.80;98.90
5494;DHT22;2769;49.864;8.656;2022-12-17T12:20:16;2.10;98.70
5494;DHT22;2769;49.864;8.656;2022-12-17T12:23:10;2.50;98.50
5494;DHT22;2769;49.864;8.656;2022-12-17T12:26:03;2.50;98.70
5494;DHT22;2769;49.864;8.656;2022-12-17T12:28:56;2.60;98.40
5494;DHT22;2769;49.864;8.656;2022-12-17T12:31:51;2.60;98.40
5494;DHT22;2769;49.864;8.656;2022-12-17T12:34:41;2.80;98.40
5494;DHT22;2769;49.864;8.656;2022-12-17T12:37:34;2.60;98.30
5494;DHT22;2769;49.864;8.656;2022-12-17T12:40:27;2.90;98.20
5494;DHT22;2769;49.864;8.656;2022-12-17T12:43:20;2.80;98.40
5494;DHT22;2769;49.864;8.656;2022-12-17T12:46:12;2.90;98.30
5494;DHT22;2769;49.864;8.656;2022-12-17T12:49:07;2.40;99.00
5494;DHT22;2769;49.864;8.656;2022-12-17T12:52:01;2.00;99.90
5494;DHT22;2769;49.864;8.656;2022-12-17T12:54:51;2.20;99.90
5494;DHT22;2769;49.864;8.656;2022-12-17T12:57:40;2.40;99.90
5494;DHT22;2769;49.864;8.656;2022-12-17T13:00:34;2.40;99.90
5494;DHT22;2769;49.864;8.656;2022-12-17T13:03:26;2.30;99.90
5494;DHT22;2769;49.864;8.656;2022-12-17T13:06:38;1.90;99.90
5494;DHT22;2769;49.864;8.656;2022-12-17T13:09:19;1.80;99.90
5494;DHT22;2769;49.864;8.656;2022-12-17T13:11:49;1.70;99.90
5494;DHT22;2769;49.864;8.656;2022-12-17T13:14:23;1.80;99.90
5494;DHT22;2769;49.864;8.656;2022-12-17T13:16:55;2.00;99.90
5494;DHT22;2769;49.864;8.656;2022-12-17T13:19:39;2.10;99.90
5494;DHT22;2769;49.864;8.656;2022-12-17T13:22:27;2.50;99.90
5494;DHT22;2769;49.864;8.656;2022-12-17T13:25:09;2.80;99.90
5494;DHT22;2769;49.864;8.656;2022-12-17T13:27:42;3.30;99.90
5494;DHT22;2769;49.864;8.656;2022-12-17T13:30:19;3.30;99.70
5494;DHT22;2769;49.864;8.656;2022-12-17T13:32:55;3.20;99.30
5494;DHT22;2769;49.864;8.656;2022-12-17T13:35:35;3.70;98.90
5494;DHT22;2769;49.864;8.656;2022-12-17T13:38:13;3.70;98.60
5494;DHT22;2769;49.864;8.656;2022-12-17T13:40:47;3.30;98.50
5494;DHT22;2769;49.864;8.656;2022-12-17T13:43:21;3.00;99.00
5494;DHT22;2769;49.864;8.656;2022-12-17T13:45:51;3.20;99.50
5494;DHT22;2769;49.864;8.656;2022-12-17T13:48:24;3.10;99.00
5494;DHT22;2769;49.864;8.656;2022-12-17T13:50:54;2.80;98.60
5494;DHT22;2769;49.864;8.656;2022-12-17T13:53:26;2.40;99.30
5494;DHT22;2769;49.864;8.656;2022-12-17T13:55:55;1.90;99.90
5494;DHT22;2769;49.864;8.656;2022-12-17T13:58:26;1.90;99.90
5494;DHT22;2769;49.864;8.656;2022-12-17T14:01:07;1.50;99.90
5494;DHT22;2769;49.864;8.656;2022-12-17T14:03:41;1.50;99.90
5494;DHT22;2769;49.864;8.656;2022-12-17T14:06:33;1.40;99.90
5494;DHT22;2769;49.864;8.656;2022-12-17T14:09:03;1.60;99.90
5494;DHT22;2769;49.864;8.656;2022-12-17T14:11:32;1.70;99.90
5494;DHT22;2769;49.864;8.656;2022-12-17T14:14:23;1.60;99.90
5494;DHT22;2769;49.864;8.656;2022-12-17T14:16:54;1.80;99.90
5494;DHT22;2769;49.864;8.656;2022-12-17T14:19:23;1.60;99.90
5494;DHT22;2769;49.864;8.656;2022-12-17T14:21:52;1.80;99.90
5494;DHT22;2769;49.864;8.656;2022-12-17T14:24:23;1.60;99.90
5494;DHT22;2769;49.864;8.656;2022-12-17T14:26:56;1.70;99.90
5494;DHT22;2769;49.864;8.656;2022-12-17T14:29:29;1.30;99.90
5494;DHT22;2769;49.864;8.656;2022-12-17T14:31:59;1.10;99.90
5494;DHT22;2769;49.864;8.656;2022-12-17T14:34:39;0.90;99.90
5494;DHT22;2769;49.864;8.656;2022-12-17T14:37:16;1.00;99.90
5494;DHT22;2769;49.864;8.656;2022-12-17T14:39:47;0.80;99.90
5494;DHT22;2769;49.864;8.656;2022-12-17T14:42:17;0.70;99.90
5494;DHT22;2769;49.864;8.656;2022-12-17T14:44:54;0.80;99.90
5494;DHT22;2769;49.864;8.656;2022-12-17T14:47:25;0.80;99.90
5494;DHT22;2769;49.864;8.656;2022-12-17T14:49:57;0.70;99.90
5494;DHT22;2769;49.864;8.656;2022-12-17T14:52:32;0.50;99.90
5494;DHT22;2769;49.864;8.656;2022-12-17T14:57:47;0.50;99.90
5494;DHT22;2769;49.864;8.656;2022-12-17T15:00:16;0.40;99.90
5494;DHT22;2769;49.864;8.656;2022-12-17T15:02:49;0.20;99.90
5494;DHT22;2769;49.864;8.656;2022-12-17T15:05:18;0.30;99.90
5494;DHT22;2769;49.864;8.656;2022-12-17T15:07:46;0.00;99.90
5494;DHT22;2769;49.864;8.656;2022-12-17T15:10:19;0.10;99.90
5494;DHT22;2769;49.864;8.656;2022-12-17T15:12:47;-0.30;99.90
5494;DHT22;2769;49.864;8.656;2022-12-17T15:15:17;0.00;99.90
5494;DHT22;2769;49.864;8.656;2022-12-17T15:17:46;-0.50;99.90
5494;DHT22;2769;49.864;8.656;2022-12-17T15:20:20;-0.30;99.90
5494;DHT22;2769;49.864;8.656;2022-12-17T15:22:48;-0.50;99.90
5494;DHT22;2769;49.864;8.656;2022-12-17T15:25:18;-0.40;99.90
5494;DHT22;2769;49.864;8.656;2022-12-17T15:27:47;-0.60;99.90
5494;DHT22;2769;49.864;8.656;2022-12-17T15:30:16;-0.60;99.90
5494;DHT22;2769;49.864;8.656;2022-12-17T15:32:45;-0.50;99.90
5494;DHT22;2769;49.864;8.656;2022-12-17T15:35:14;-0.30;99.90
5494;DHT22;2769;49.864;8.656;2022-12-17T15:37:42;-0.20;99.90
5494;DHT22;2769;49.864;8.656;2022-12-17T15:40:10;-0.20;99.90
5494;DHT22;2769;49.864;8.656;2022-12-17T15:42:40;-0.20;99.90
5494;DHT22;2769;49.864;8.656;2022-12-17T15:45:32;-0.40;99.90
5494;DHT22;2769;49.864;8.656;2022-12-17T15:48:00;-0.30;99.90
5494;DHT22;2769;49.864;8.656;2022-12-17T15:50:29;-0.40;99.90
5494;DHT22;2769;49.864;8.656;2022-12-17T15:52:57;-0.50;99.90
5494;DHT22;2769;49.864;8.656;2022-12-17T15:55:26;-0.40;99.90
5494;DHT22;2769;49.864;8.656;2022-12-17T15:57:55;-0.20;99.90
5494;DHT22;2769;49.864;8.656;2022-12-17T16:00:24;-0.30;99.90
5494;DHT22;2769;49.864;8.656;2022-12-17T16:02:52;-0.40;99.90
5494;DHT22;2769;49.864;8.656;2022-12-17T16:05:21;-0.40;99.90
5494;DHT22;2769;49.864;8.656;2022-12-17T16:07:50;-0.20;99.90
5494;DHT22;2769;49.864;8.656;2022-12-17T16:10:18;-0.60;99.90
5494;DHT22;2769;49.864;8.656;2022-12-17T16:12:46;-0.50;99.90
5494;DHT22;2769;49.864;8.656;2022-12-17T16:15:17;-0.40;99.90
5494;DHT22;2769;49.864;8.656;2022-12-17T16:17:46;-0.20;99.90
5494;DHT22;2769;49.864;8.656;2022-12-17T16:20:14;-0.60;99.90
5494;DHT22;2769;49.864;8.656;2022-12-17T16:22:43;-0.80;99.90
5494;DHT22;2769;49.864;8.656;2022-12-17T16:25:11;-1.10;99.90
5494;DHT22;2769;49.864;8.656;2022-12-17T16:27:39;-0.80;99.90
5494;DHT22;2769;49.864;8.656;2022-12-17T16:30:08;-0.90;99.90
5494;DHT22;2769;49.864;8.656;2022-12-17T16:32:41;-0.80;99.90
5494;DHT22;2769;49.864;8.656;2022-12-17T16:35:09;-0.90;99.90
5494;DHT22;2769;49.864;8.656;2022-12-17T16:37:37;-0.90;99.90
5494;DHT22;2769;49.864;8.656;2022-12-17T16:40:07;-0.90;99.90
5494;DHT22;2769;49.864;8.656;2022-12-17T16:42:35;-1.10;99.90
5494;DHT22;2769;49.864;8.656;2022-12-17T16:45:05;-0.90;99.90
5494;DHT22;2769;49.864;8.656;2022-12-17T16:47:33;-1.10;99.90
5494;DHT22;2769;49.864;8.656;2022-12-17T16:50:04;-0.90;99.90
5494;DHT22;2769;49.864;8.656;2022-12-17T16:52:33;-1.10;99.90
5494;DHT22;2769;49.864;8.656;2022-12-17T16:55:01;-1.00;99.90
5494;DHT22;2769;49.864;8.656;2022-12-17T16:57:29;-1.00;99.90
5494;DHT22;2769;49.864;8.656;2022-12-17T16:59:57;-1.10;99.90
5494;DHT22;2769;49.864;8.656;2022-12-17T17:02:26;-1.10;99.90
5494;DHT22;2769;49.864;8.656;2022-12-17T17:04:54;-1.50;99.90
5494;DHT22;2769;49.864;8.656;2022-12-17T17:07:24;-1.50;99.90
5494;DHT22;2769;49.864;8.656;2022-12-17T17:09:52;-1.60;99.90
5494;DHT22;2769;49.864;8.656;2022-12-17T17:12:20;-1.80;99.90
5494;DHT22;2769;49.864;8.656;2022-12-17T17:14:49;-1.60;99.90
5494;DHT22;2769;49.864;8.656;2022-12-17T17:17:17;-1.50;99.90
5494;DHT22;2769;49.864;8.656;2022-12-17T17:20:06;-1.30;99.90
5494;DHT22;2769;49.864;8.656;2022-12-17T17:22:35;-1.30;99.90
5494;DHT22;2769;49.864;8.656;2022-12-17T17:25:04;-1.60;99.90
5494;DHT22;2769;49.864;8.656;2022-12-17T17:27:32;-1.90;99.90
5494;DHT22;2769;49.864;8.656;2022-12-17T17:30:01;-1.70;99.90
5494;DHT22;2769;49.864;8.656;2022-12-17T17:32:30;-1.80;99.90
5494;DHT22;2769;49.864;8.656;2022-12-17T17:34:58;-1.50;99.90
5494;DHT22;2769;49.864;8.656;2022-12-17T17:37:26;-1.50;99.90
5494;DHT22;2769;49.864;8.656;2022-12-17T17:39:56;-1.50;99.90
5494;DHT22;2769;49.864;8.656;2022-12-17T17:42:24;-1.30;99.90
5494;DHT22;2769;49.864;8.656;2022-12-17T17:44:52;-1.50;99.90
5494;DHT22;2769;49.864;8.656;2022-12-17T17:47:20;-1.60;99.90
5494;DHT22;2769;49.864;8.656;2022-12-17T17:49:49;-1.50;99.90
5494;DHT22;2769;49.864;8.656;2022-12-17T17:52:17;-1.60;99.90
5494;DHT22;2769;49.864;8.656;2022-12-17T17:54:46;-1.60;99.90
5494;DHT22;2769;49.864;8.656;2022-12-17T17:57:15;-2.00;99.90
5494;DHT22;2769;49.864;8.656;2022-12-17T17:59:44;-1.90;99.90